createdAt,value
2018-01-03T00:01:30.281Z,15.93
2018-01-03T00:04:01.885Z,19.37
2018-01-03T00:06:35.590Z,20.90
2018-01-03T00:09:07.119Z,21.83
2018-01-03T00:11:38.046Z,21.80
2018-01-03T00:14:09.882Z,16.00
2018-01-03T00:16:40.580Z,19.37
2018-01-03T00:19:12.341Z,19.17
2018-01-03T00:21:44.336Z,20.80
2018-01-03T00:24:15.078Z,22.10
2018-01-03T00:26:46.369Z,22.40
2018-01-03T00:29:17.269Z,20.20
2018-01-03T00:31:48.016Z,24.87
2018-01-03T00:34:18.767Z,21.33
2018-01-03T00:36:49.816Z,17.73
2018-01-03T00:39:20.806Z,19.80
2018-01-03T00:41:52.254Z,15.23
2018-01-03T00:44:23.194Z,16.87
2018-01-03T00:46:54.127Z,19.00
2018-01-03T00:49:27.532Z,16.37
2018-01-03T00:51:58.783Z,14.03
2018-01-03T00:54:29.510Z,16.80
2018-01-03T00:57:00.895Z,17.83
2018-01-03T00:59:32.584Z,18.57
2018-01-03T01:02:04.113Z,21.47
2018-01-03T01:04:34.813Z,19.53
2018-01-03T01:07:05.487Z,15.87
2018-01-03T01:09:37.943Z,18.33
2018-01-03T01:12:09.338Z,13.40
2018-01-03T01:14:40.105Z,16.37
2018-01-03T01:17:10.760Z,15.70
2018-01-03T01:19:42.451Z,14.27
2018-01-03T01:22:13.137Z,14.60
2018-01-03T01:24:43.987Z,11.57
2018-01-03T01:27:15.968Z,11.10
2018-01-03T01:29:46.640Z,13.97
2018-01-03T01:32:17.312Z,13.67
2018-01-03T01:34:52.357Z,10.47
2018-01-03T01:37:23.091Z,15.07
2018-01-03T01:39:53.934Z,12.47
2018-01-03T01:42:27.331Z,11.73
2018-01-03T01:44:59.364Z,7.87
2018-01-03T01:47:32.622Z,9.07
2018-01-03T01:50:08.127Z,9.03
2018-01-03T01:52:39.471Z,10.57
2018-01-03T01:55:11.054Z,8.33
2018-01-03T01:57:42.886Z,7.83
2018-01-03T02:00:15.229Z,11.40
2018-01-03T02:02:46.491Z,9.10
2018-01-03T02:05:17.431Z,11.63
2018-01-03T02:07:49.039Z,11.77
2018-01-03T02:10:21.896Z,10.33
2018-01-03T02:12:53.419Z,13.63
2018-01-03T02:15:24.140Z,12.17
2018-01-03T02:17:55.430Z,8.20
2018-01-03T02:20:28.279Z,9.70
2018-01-03T02:22:59.196Z,10.77
2018-01-03T02:25:33.091Z,11.03
2018-01-03T02:28:05.756Z,8.60
2018-01-03T02:30:36.683Z,11.97
2018-01-03T02:33:07.386Z,11.73
2018-01-03T02:35:39.160Z,11.33
2018-01-03T02:38:24.434Z,9.70
2018-01-03T02:40:57.404Z,11.47
2018-01-03T02:43:29.111Z,12.60
2018-01-03T02:46:03.034Z,18.27
2018-01-03T02:48:34.779Z,14.80
2018-01-03T02:51:10.155Z,14.73
2018-01-03T02:53:40.835Z,14.60
2018-01-03T02:56:12.308Z,10.37
2018-01-03T02:58:43.371Z,10.47
2018-01-03T03:01:15.032Z,14.20
2018-01-03T03:03:45.669Z,9.40
2018-01-03T03:06:17.127Z,8.70
2018-01-03T03:08:48.145Z,14.80
2018-01-03T03:11:18.876Z,10.40
2018-01-03T03:13:50.112Z,9.53
2018-01-03T03:16:23.220Z,11.50
2018-01-03T03:18:56.156Z,13.17
2018-01-03T03:21:30.746Z,16.93
2018-01-03T03:24:01.461Z,15.27
2018-01-03T03:26:32.359Z,15.00
2018-01-03T03:29:04.454Z,14.30
2018-01-03T03:31:35.134Z,12.57
2018-01-03T03:34:09.264Z,15.53
2018-01-03T03:36:40.518Z,10.13
2018-01-03T03:39:11.216Z,13.10
2018-01-03T03:41:42.577Z,14.27
2018-01-03T03:44:15.160Z,11.77
2018-01-03T03:46:47.255Z,13.30
2018-01-03T03:49:19.282Z,16.13
2018-01-03T03:51:49.911Z,14.80
2018-01-03T03:54:20.571Z,16.20
2018-01-03T03:56:52.283Z,11.93
2018-01-03T03:59:22.970Z,13.47
2018-01-03T04:01:54.467Z,12.33
2018-01-03T04:04:25.427Z,11.33
2018-01-03T04:06:56.962Z,10.60
2018-01-03T04:09:27.654Z,11.67
2018-01-03T04:11:59.079Z,13.93
2018-01-03T04:14:29.798Z,12.40
2018-01-03T04:17:01.659Z,9.90
2018-01-03T04:19:32.662Z,10.43
2018-01-03T04:22:04.301Z,9.00
2018-01-03T04:24:36.644Z,9.13
2018-01-03T04:27:08.356Z,13.40
2018-01-03T04:29:39.071Z,8.50
2018-01-03T04:32:11.299Z,9.37
2018-01-03T04:34:42.933Z,8.40
2018-01-03T04:37:13.777Z,11.57
2018-01-03T04:39:44.423Z,7.83
2018-01-03T04:42:16.119Z,6.80
2018-01-03T04:44:47.135Z,10.27
2018-01-03T04:47:20.482Z,8.57
2018-01-03T04:49:52.006Z,7.07
2018-01-03T04:52:22.583Z,6.93
2018-01-03T04:54:53.526Z,6.73
2018-01-03T04:57:25.715Z,7.00
2018-01-03T04:59:57.754Z,5.90
2018-01-03T05:02:28.391Z,6.37
2018-01-03T05:05:01.776Z,9.93
2018-01-03T05:07:33.813Z,5.10
2018-01-03T05:10:04.654Z,4.57
2018-01-03T05:12:35.624Z,5.47
2018-01-03T05:15:08.483Z,5.77
2018-01-03T05:17:39.577Z,4.80
2018-01-03T05:20:11.621Z,6.07
2018-01-03T05:22:42.259Z,8.73
2018-01-03T05:25:14.238Z,7.00
2018-01-03T05:27:45.987Z,4.53
2018-01-03T05:30:16.679Z,3.53
2018-01-03T05:32:47.994Z,3.10
2018-01-03T05:35:19.823Z,2.70
2018-01-03T05:37:50.819Z,4.83
2018-01-03T05:40:21.429Z,3.43
2018-01-03T05:42:52.660Z,3.30
2018-01-03T05:45:26.168Z,4.23
2018-01-03T05:47:56.926Z,3.10
2018-01-03T05:50:32.623Z,3.43
2018-01-03T05:53:12.192Z,3.20
2018-01-03T05:55:43.954Z,3.20
2018-01-03T05:58:14.730Z,3.70
2018-01-03T06:00:45.646Z,3.13
2018-01-03T06:03:16.286Z,3.03
2018-01-03T06:05:48.611Z,4.23
2018-01-03T06:08:21.274Z,19.73
2018-01-03T06:10:51.904Z,2.77
2018-01-03T06:13:22.531Z,4.17
2018-01-03T06:15:53.324Z,5.60
2018-01-03T06:18:24.048Z,2.70
2018-01-03T06:20:55.113Z,3.30
2018-01-03T06:23:25.863Z,1.73
2018-01-03T06:25:58.361Z,2.27
2018-01-03T06:28:30.417Z,1.77
2018-01-03T06:31:02.603Z,2.57
2018-01-03T06:33:34.007Z,2.03
2018-01-03T06:36:05.872Z,1.97
2018-01-03T06:38:36.822Z,2.00
2018-01-03T06:41:11.756Z,3.83
2018-01-03T06:43:42.883Z,2.50
2018-01-03T06:46:15.724Z,2.57
2018-01-03T06:48:47.895Z,3.00
2018-01-03T06:51:18.922Z,3.33
2018-01-03T06:53:50.326Z,2.13
2018-01-03T06:56:23.657Z,2.83
2018-01-03T06:58:58.999Z,2.90
2018-01-03T07:01:29.727Z,4.37
2018-01-03T07:04:00.742Z,2.60
2018-01-03T07:06:31.407Z,3.43
2018-01-03T07:09:02.207Z,3.57
2018-01-03T07:11:34.223Z,3.60
2018-01-03T07:14:05.883Z,5.03
2018-01-03T07:16:37.787Z,4.30
2018-01-03T07:19:12.551Z,4.10
2018-01-03T07:21:45.904Z,5.73
2018-01-03T07:24:17.417Z,6.30
2018-01-03T07:26:49.826Z,4.70
2018-01-03T07:29:20.862Z,13.23
2018-01-03T07:31:52.475Z,7.10
2018-01-03T07:34:26.918Z,7.60
2018-01-03T07:36:57.679Z,8.70
2018-01-03T07:39:28.431Z,11.17
2018-01-03T07:41:59.106Z,8.83
2018-01-03T07:44:31.551Z,10.00
2018-01-03T07:47:05.679Z,8.97
2018-01-03T07:49:41.010Z,10.63
2018-01-03T07:52:12.682Z,13.83
2018-01-03T07:57:41.039Z,14.33
2018-01-03T08:00:16.362Z,16.93
2018-01-03T08:02:59.730Z,13.00
2018-01-03T08:05:32.628Z,18.07
2018-01-03T08:08:04.440Z,13.57
2018-01-03T08:10:38.486Z,15.00
2018-01-03T08:13:13.124Z,13.53
2018-01-03T08:15:54.970Z,21.07
2018-01-03T08:18:55.895Z,15.57
2018-01-03T08:21:29.838Z,22.83
2018-01-03T08:24:03.239Z,16.63
2018-01-03T08:26:37.847Z,19.37
2018-01-03T08:29:09.137Z,15.37
2018-01-03T08:31:40.796Z,17.87
2018-01-03T08:34:12.423Z,20.00
2018-01-03T08:36:45.626Z,15.23
2018-01-03T08:39:18.300Z,13.93
2018-01-03T08:41:50.827Z,15.67
2018-01-03T08:44:23.698Z,16.53
2018-01-03T08:46:55.044Z,14.03
2018-01-03T08:49:26.335Z,30.63
2018-01-03T08:51:57.728Z,14.67
2018-01-03T08:54:30.235Z,20.40
2018-01-03T08:57:03.336Z,18.00
2018-01-03T08:59:40.687Z,20.80
2018-01-03T09:02:11.866Z,16.27
2018-01-03T09:04:45.399Z,16.13
2018-01-03T09:07:21.218Z,16.80
2018-01-03T09:09:55.564Z,17.30
2018-01-03T09:12:27.147Z,17.83
2018-01-03T09:15:01.198Z,17.53
2018-01-03T09:17:45.206Z,14.60
2018-01-03T09:20:16.192Z,16.63
2018-01-03T09:22:47.254Z,17.70
2018-01-03T09:25:20.851Z,17.40
2018-01-03T09:27:53.457Z,18.90
2018-01-03T09:30:24.576Z,16.03
2018-01-03T09:32:56.830Z,19.60
2018-01-03T09:35:29.314Z,16.07
2018-01-03T09:38:03.866Z,18.50
2018-01-03T09:40:39.737Z,23.47
2018-01-03T09:43:11.694Z,23.50
2018-01-03T09:45:44.716Z,20.97
2018-01-03T09:48:15.804Z,19.10
2018-01-03T09:50:46.581Z,21.47
2018-01-03T09:53:17.232Z,18.00
2018-01-03T09:55:48.707Z,19.70
2018-01-03T09:58:19.351Z,16.80
2018-01-03T10:00:50.635Z,16.77
2018-01-03T10:03:21.322Z,20.20
2018-01-03T10:05:51.951Z,14.60
2018-01-03T10:08:22.875Z,16.77
2018-01-03T10:10:53.515Z,14.27
2018-01-03T10:13:24.099Z,21.40
2018-01-03T10:15:55.522Z,17.20
2018-01-03T10:18:27.138Z,16.63
2018-01-03T10:20:58.891Z,18.23
2018-01-03T10:23:29.832Z,19.63
2018-01-03T10:26:00.506Z,22.07
2018-01-03T10:28:34.515Z,18.07
2018-01-03T10:31:05.139Z,20.97
2018-01-03T10:33:36.107Z,18.33
2018-01-03T10:36:06.964Z,17.63
2018-01-03T10:38:38.369Z,12.90
2018-01-03T10:41:09.034Z,18.53
2018-01-03T10:43:40.686Z,19.97
2018-01-03T10:46:12.140Z,18.10
2018-01-03T10:48:43.592Z,17.60
2018-01-03T10:51:14.448Z,20.50
2018-01-03T10:53:45.384Z,21.93
2018-01-03T10:56:16.084Z,13.30
2018-01-03T10:58:46.989Z,21.67
2018-01-03T11:01:21.199Z,17.77
2018-01-03T11:03:52.730Z,22.97
2018-01-03T11:06:28.471Z,22.73
2018-01-03T11:09:00.936Z,17.93
2018-01-03T11:11:31.811Z,12.70
2018-01-03T11:14:02.951Z,12.80
2018-01-03T11:16:33.653Z,16.30
2018-01-03T11:19:04.366Z,17.70
2018-01-03T11:21:35.250Z,15.67
2018-01-03T11:24:05.972Z,17.77
2018-01-03T11:26:36.888Z,16.43
2018-01-03T11:29:07.570Z,19.83
2018-01-03T11:31:38.281Z,15.43
2018-01-03T11:34:09.823Z,17.37
2018-01-03T11:36:41.610Z,10.43
2018-01-03T11:39:13.260Z,16.60
2018-01-03T11:41:44.130Z,12.07
2018-01-03T11:44:15.457Z,18.23
2018-01-03T11:46:48.152Z,15.00
2018-01-03T11:49:18.799Z,12.13
2018-01-03T11:51:50.062Z,12.67
2018-01-03T11:54:23.873Z,11.17
2018-01-03T11:56:54.647Z,21.43
2018-01-03T11:59:25.552Z,8.87
2018-01-03T12:01:57.197Z,13.77
2018-01-03T12:04:29.318Z,10.30
2018-01-03T12:07:00.458Z,11.40
2018-01-03T12:09:32.123Z,13.50
2018-01-03T12:12:08.664Z,16.53
2018-01-03T12:14:41.178Z,8.33
2018-01-03T12:17:11.929Z,15.80
2018-01-03T12:19:48.158Z,15.50
2018-01-03T12:22:18.910Z,11.17
2018-01-03T12:24:50.259Z,9.43
2018-01-03T12:27:22.951Z,9.47
2018-01-03T12:29:53.895Z,9.57
2018-01-03T12:32:26.059Z,10.77
2018-01-03T12:34:57.013Z,11.57
2018-01-03T12:37:27.771Z,12.50
2018-01-03T12:39:58.472Z,9.40
2018-01-03T12:42:30.016Z,12.40
2018-01-03T12:45:01.317Z,7.13
2018-01-03T12:47:33.940Z,11.17
2018-01-03T12:50:04.661Z,9.37
2018-01-03T12:52:36.239Z,5.97
2018-01-03T12:55:07.032Z,8.77
2018-01-03T12:57:39.891Z,9.07
2018-01-03T13:00:13.963Z,8.37
2018-01-03T13:02:44.696Z,7.50
2018-01-03T13:05:17.650Z,8.80
2018-01-03T13:07:52.852Z,8.23
2018-01-03T13:10:24.297Z,4.40
2018-01-03T13:12:55.128Z,6.13
2018-01-03T13:15:25.884Z,4.83
2018-01-03T13:17:56.948Z,4.27
2018-01-03T13:20:27.848Z,7.93
2018-01-03T13:22:58.737Z,4.73
2018-01-03T13:25:32.948Z,3.40
2018-01-03T13:28:04.498Z,9.60
2018-01-03T13:30:36.171Z,8.37
2018-01-03T13:33:06.803Z,8.40
2018-01-03T13:35:37.893Z,5.87
2018-01-03T13:38:09.570Z,6.33
2018-01-03T13:40:41.053Z,2.43
2018-01-03T13:43:11.899Z,5.67
2018-01-03T13:45:46.648Z,6.57
2018-01-03T13:48:19.852Z,4.53
2018-01-03T13:50:52.282Z,3.80
2018-01-03T13:53:24.553Z,3.03
2018-01-03T13:55:57.311Z,5.13
2018-01-03T13:58:31.797Z,3.57
2018-01-03T14:01:03.788Z,4.23
2018-01-03T14:03:34.627Z,2.97
2018-01-03T14:06:06.669Z,3.77
2018-01-03T14:08:39.353Z,5.07
2018-01-03T14:11:17.206Z,3.53
2018-01-03T14:13:47.969Z,2.80
2018-01-03T14:16:19.987Z,4.00
2018-01-03T14:18:54.694Z,6.23
2018-01-03T14:24:13.281Z,4.93
2018-01-03T14:26:46.805Z,7.93
2018-01-03T14:29:21.074Z,6.90
2018-01-03T14:31:55.095Z,3.50
2018-01-03T14:34:26.325Z,8.17
2018-01-03T14:36:57.912Z,8.10
2018-01-03T14:39:28.798Z,6.10
2018-01-03T14:41:59.893Z,8.93
2018-01-03T14:44:33.440Z,6.10
2018-01-03T14:47:09.622Z,7.70
2018-01-03T14:49:43.890Z,8.67
2018-01-03T14:52:17.387Z,11.53
2018-01-03T14:54:48.694Z,7.50
2018-01-03T14:57:21.771Z,8.77
2018-01-03T14:59:52.652Z,8.50
2018-01-03T15:02:25.604Z,13.03
2018-01-03T15:05:25.516Z,9.03
2018-01-03T15:07:58.717Z,8.87
2018-01-03T15:10:32.104Z,18.13
2018-01-03T15:13:05.134Z,14.73
2018-01-03T15:15:38.399Z,13.30
2018-01-03T15:18:10.393Z,8.07
2018-01-03T15:20:42.336Z,11.30
2018-01-03T15:23:13.152Z,13.07
2018-01-03T15:25:44.084Z,6.90
2018-01-03T15:28:15.208Z,11.77
2018-01-03T15:30:45.940Z,12.57
2018-01-03T15:33:16.746Z,11.00
2018-01-03T15:35:47.720Z,15.63
2018-01-03T15:38:18.811Z,13.90
2018-01-03T15:40:50.493Z,15.20
2018-01-03T15:43:22.225Z,13.27
2018-01-03T15:45:53.913Z,10.67
2018-01-03T15:48:24.685Z,20.37
2018-01-03T15:50:55.510Z,15.10
2018-01-03T15:53:26.314Z,11.20
2018-01-03T15:55:57.253Z,10.37
2018-01-03T15:58:28.176Z,9.03
2018-01-03T16:00:58.969Z,5.93
2018-01-03T16:03:30.948Z,10.17
2018-01-03T16:06:02.027Z,6.73
2018-01-03T16:08:32.947Z,5.63
2018-01-03T16:11:04.521Z,7.53
2018-01-03T16:13:35.236Z,3.53
2018-01-03T16:16:06.052Z,3.43
2018-01-03T16:18:36.875Z,6.33
2018-01-03T16:21:08.806Z,6.27
2018-01-03T16:23:39.640Z,10.07
2018-01-03T16:26:10.593Z,10.23
2018-01-03T16:28:42.032Z,16.30
2018-01-03T16:31:14.142Z,8.53
2018-01-03T16:33:45.145Z,11.03
2018-01-03T16:36:16.613Z,14.17
2018-01-03T16:38:47.428Z,9.63
2018-01-03T16:41:18.355Z,6.53
2018-01-03T16:43:51.556Z,5.27
2018-01-03T16:46:22.934Z,10.20
2018-01-03T16:48:54.392Z,6.83
2018-01-03T16:51:29.940Z,5.23
2018-01-03T16:54:01.021Z,5.03
2018-01-03T16:56:32.056Z,5.33
2018-01-03T16:59:05.345Z,4.33
2018-01-03T17:01:36.995Z,8.67
2018-01-03T17:04:08.167Z,9.23
2018-01-03T17:06:39.422Z,13.63
2018-01-03T17:09:10.584Z,15.10
2018-01-03T17:11:41.881Z,10.83
2018-01-03T17:14:13.448Z,17.17
2018-01-03T17:16:44.544Z,17.10
2018-01-03T17:19:16.230Z,11.90
2018-01-03T17:21:47.926Z,17.73
2018-01-03T17:24:19.610Z,16.50
2018-01-03T17:26:50.927Z,14.27
2018-01-03T17:29:22.657Z,19.13
2018-01-03T17:31:55.130Z,9.57
2018-01-03T17:34:31.100Z,11.37
2018-01-03T17:37:03.985Z,9.00
2018-01-03T17:39:38.895Z,7.27
2018-01-03T17:42:10.852Z,8.53
2018-01-03T17:44:43.143Z,9.97
2018-01-03T17:47:15.082Z,8.27
2018-01-03T17:49:47.537Z,8.87
2018-01-03T17:52:19.353Z,15.87
2018-01-03T17:54:50.815Z,12.67
2018-01-03T17:57:24.125Z,4.37
2018-01-03T17:59:56.918Z,10.43
2018-01-03T18:02:28.365Z,6.27
2018-01-03T18:04:59.814Z,8.07
2018-01-03T18:07:31.569Z,9.10
2018-01-03T18:10:04.872Z,7.07
2018-01-03T18:12:38.002Z,7.77
2018-01-03T18:15:09.509Z,9.80
2018-01-03T18:17:40.823Z,7.70
2018-01-03T18:20:12.417Z,11.73
2018-01-03T18:22:46.258Z,9.77
2018-01-03T18:25:29.383Z,7.97
2018-01-03T18:28:01.787Z,10.63
2018-01-03T18:30:42.172Z,5.43
2018-01-03T18:33:13.844Z,8.43
2018-01-03T18:35:47.985Z,5.03
2018-01-03T18:38:21.228Z,6.90
2018-01-03T18:40:52.900Z,8.77
2018-01-03T18:43:25.010Z,10.33
2018-01-03T18:45:57.986Z,9.70
2018-01-03T18:48:48.005Z,6.80
2018-01-03T18:51:22.585Z,13.63
2018-01-03T18:53:54.468Z,18.03
2018-01-03T18:56:26.461Z,7.90
2018-01-03T18:58:59.121Z,9.47
2018-01-03T19:01:32.063Z,11.13
2018-01-03T19:04:04.273Z,15.00
2018-01-03T19:06:36.562Z,9.23
2018-01-03T19:09:08.225Z,11.93
2018-01-03T19:11:40.228Z,9.63
2018-01-03T19:14:12.689Z,16.33
2018-01-03T19:16:44.835Z,9.90
2018-01-03T19:19:17.444Z,11.33
2018-01-03T19:21:49.633Z,13.77
2018-01-03T19:24:22.246Z,8.90
2018-01-03T19:26:54.379Z,13.07
2018-01-03T19:29:25.633Z,10.50
2018-01-03T19:31:58.531Z,13.63
2018-01-03T19:34:31.077Z,19.43
2018-01-03T19:37:03.865Z,21.23
2018-01-03T19:39:35.754Z,18.00
2018-01-03T19:42:08.340Z,20.03
2018-01-03T19:44:40.732Z,22.80
2018-01-03T19:47:12.052Z,22.47
2018-01-03T19:49:44.137Z,24.57
2018-01-03T19:52:16.552Z,21.77
2018-01-03T19:54:48.174Z,31.37
2018-01-03T19:57:19.743Z,32.73
2018-01-03T19:59:51.369Z,30.80
2018-01-03T20:02:23.828Z,36.20
2018-01-03T20:04:57.326Z,32.93
2018-01-03T20:07:28.896Z,38.73
2018-01-03T20:10:00.599Z,35.87
2018-01-03T20:12:32.394Z,21.97
2018-01-03T20:15:04.602Z,38.93
2018-01-03T20:17:36.619Z,35.63
2018-01-03T20:20:08.302Z,27.17
2018-01-03T20:22:40.913Z,26.73
2018-01-03T20:25:12.431Z,26.50
2018-01-03T20:27:45.353Z,33.27
2018-01-03T20:30:17.415Z,26.83
2018-01-03T20:32:50.331Z,35.30
2018-01-03T20:35:25.324Z,31.00
2018-01-03T20:37:57.756Z,25.73
2018-01-03T20:40:30.762Z,25.47
2018-01-03T20:43:06.071Z,20.10
2018-01-03T20:45:38.801Z,17.67
2018-01-03T20:48:13.315Z,31.30
2018-01-03T20:50:45.530Z,25.43
2018-01-03T20:53:20.658Z,28.73
2018-01-03T20:55:53.104Z,20.43
2018-01-03T20:58:24.350Z,19.10
2018-01-03T21:00:56.613Z,24.23
2018-01-03T21:03:29.459Z,20.30
2018-01-03T21:06:11.751Z,14.23
2018-01-03T21:08:44.489Z,20.00
2018-01-03T21:11:19.088Z,26.47
2018-01-03T21:13:53.964Z,26.00
2018-01-03T21:16:26.127Z,18.20
2018-01-03T21:18:59.853Z,19.60
2018-01-03T21:21:31.786Z,21.13
2018-01-03T21:24:04.241Z,21.13
2018-01-03T21:26:35.772Z,23.20
2018-01-03T21:29:07.578Z,20.67
2018-01-03T21:31:39.585Z,24.90
2018-01-03T21:34:12.439Z,22.23
2018-01-03T21:36:45.087Z,24.53
2018-01-03T21:39:16.328Z,21.40
2018-01-03T21:41:47.837Z,23.13
2018-01-03T21:44:19.121Z,25.33
2018-01-03T21:46:50.917Z,17.30
2018-01-03T21:49:23.231Z,18.87
2018-01-03T21:51:55.102Z,17.67
2018-01-03T21:54:26.490Z,21.63
2018-01-03T21:56:58.820Z,22.03
2018-01-03T21:59:30.596Z,21.90
2018-01-03T22:02:02.876Z,21.33
2018-01-03T22:04:35.610Z,25.67
2018-01-03T22:07:07.469Z,21.63
2018-01-03T22:09:39.653Z,24.30
2018-01-03T22:12:11.007Z,26.53
2018-01-03T22:14:44.419Z,22.13
2018-01-03T22:17:17.331Z,18.97
2018-01-03T22:19:49.329Z,18.10
2018-01-03T22:22:21.197Z,21.50
2018-01-03T22:24:55.520Z,20.87
2018-01-03T22:27:26.711Z,20.50
2018-01-03T22:29:59.029Z,22.80
2018-01-03T22:32:30.933Z,25.67
2018-01-03T22:35:02.498Z,30.50
2018-01-03T22:37:33.526Z,18.43
2018-01-03T22:40:05.607Z,21.60
2018-01-03T22:42:37.169Z,23.20
2018-01-03T22:45:08.762Z,19.47
2018-01-03T22:47:40.687Z,23.53
2018-01-03T22:50:12.836Z,22.03
2018-01-03T22:52:44.552Z,24.80
2018-01-03T22:55:15.625Z,21.63
2018-01-03T22:57:46.544Z,23.63
2018-01-03T23:00:17.774Z,22.70
2018-01-03T23:02:48.770Z,17.47
2018-01-03T23:05:20.732Z,26.10
2018-01-03T23:07:53.938Z,20.20
2018-01-03T23:10:25.194Z,22.27
2018-01-03T23:12:57.294Z,21.10
2018-01-03T23:15:31.908Z,17.10
2018-01-03T23:18:04.006Z,14.90
2018-01-03T23:20:35.111Z,20.50
2018-01-03T23:23:06.034Z,25.97
2018-01-03T23:25:37.277Z,25.00
2018-01-03T23:28:08.310Z,23.10
2018-01-03T23:30:39.217Z,28.40
2018-01-03T23:33:10.141Z,29.10
2018-01-03T23:35:41.199Z,21.73
2018-01-03T23:38:13.458Z,25.13
2018-01-03T23:40:44.200Z,27.27
2018-01-03T23:43:16.757Z,27.07
2018-01-03T23:45:48.889Z,26.90
2018-01-03T23:48:20.954Z,31.07
2018-01-03T23:50:53.248Z,29.80
2018-01-03T23:53:24.577Z,33.97
2018-01-03T23:55:55.483Z,21.10
2018-01-03T23:58:26.280Z,20.40
